This is the latest recevied weather packets stored in our database for station/object N2XP-2. If no packets are shown the sender has not sent any weather packets the latest 10 day(s).
| Time | Temp. | Humidity | Pressure | Rain* | Wind** | Luminosity | Snow |
|---|---|---|---|---|---|---|---|
| 1777980983 | 20° C | 69% | 1011.4 hPa | 0 mm | 1.34 m/s, 207° | - | - |
| 1777980684 | 20° C | 70% | 1011.4 hPa | 0 mm | 1.34 m/s, 225° | - | - |
| 1777980380 | 19.44° C | 71% | 1011.4 hPa | 0 mm | 1.34 m/s, 262° | - | - |
| 1777980081 | 18.89° C | 74% | 1011.3 hPa | 0 mm | 0.89 m/s, 190° | - | - |
| 1777979782 | 18.33° C | 76% | 1011.3 hPa | 0 mm | 0.89 m/s, 273° | - | - |
| 1777979479 | 17.78° C | 78% | 1011.2 hPa | 0 mm | 0.45 m/s, 208° | - | - |
| 1777978881 | 16.67° C | 79% | 1011.2 hPa | 0 mm | 1.79 m/s, 330° | - | - |
| 1777978676 | 16.67° C | 79% | 1010.9 hPa | 0 mm | 1.79 m/s, 283° | - | - |
| 1777978658 | 16.67° C | 81% | 1010.7 hPa | 0 mm | 1.34 m/s, 215° | - | - |
| 1777978578 | 16.67° C | 79% | 1011.1 hPa | 0 mm | 1.34 m/s, 305° | - | - |
| 1777978279 | 16.67° C | 79% | 1011.1 hPa | 0 mm | 0.89 m/s, 259° | - | - |
| 1777977981 | 16.67° C | 79% | 1011 hPa | 0 mm | 0.89 m/s, 300° | - | - |
| 1777977678 | 16.67° C | 79% | 1011 hPa | 0 mm | 1.34 m/s, 215° | - | - |
| 1777977379 | 16.67° C | 79% | 1010.9 hPa | 0 mm | 1.79 m/s, 283° | - | - |
| 1777977080 | 16.67° C | 80% | 1010.8 hPa | 0 mm | 1.79 m/s, 245° | - | - |
| 1777976777 | 16.67° C | 81% | 1010.7 hPa | 0 mm | 1.34 m/s, 215° | - | - |
| 1777976750 | 15.56° C | 85% | 1010.5 hPa | 0 mm | 0.89 m/s, 229° | - | - |
| 1777976741 | 15.56° C | 85% | 1010.6 hPa | 0 mm | 1.34 m/s, 239° | - | - |
| 1777976478 | 16.67° C | 82% | 1010.7 hPa | 0 mm | 0.89 m/s, 276° | - | - |
| 1777976179 | 16.11° C | 83% | 1010.6 hPa | 0 mm | 0.89 m/s, 243° | - | - |
| 1777975877 | 16.11° C | 84% | 1010.5 hPa | 0 mm | 1.79 m/s, 211° | - | - |
| 1777975578 | 16.11° C | 84% | 1010.5 hPa | 0 mm | 1.34 m/s, 226° | - | - |
| 1777975279 | 15.56° C | 85% | 1010.5 hPa | 0 mm | 0.89 m/s, 229° | - | - |
| 1777974975 | 15.56° C | 85% | 1010.6 hPa | 0 mm | 1.34 m/s, 239° | - | - |
| 1777974822 | 15.56° C | 85% | 1010.6 hPa | 0 mm | 1.34 m/s, 250° | - | - |
* Rain latest hour (hover to see other rain measurements)
** Current wind speed in m/s (hover to see current wind gust speed)